sensor_id;sensor_type;location;lat;lon;timestamp;temperature;humidity
8910;DHT22;4490;49.072;8.804;2023-05-29T00:00:04;14.70;84.40
8910;DHT22;4490;49.072;8.804;2023-05-29T00:02:34;14.80;84.30
8910;DHT22;4490;49.072;8.804;2023-05-29T00:05:00;14.80;83.80
8910;DHT22;4490;49.072;8.804;2023-05-29T00:07:29;14.90;83.70
8910;DHT22;4490;49.072;8.804;2023-05-29T00:09:55;14.90;83.60
8910;DHT22;4490;49.072;8.804;2023-05-29T00:12:20;15.00;83.60
8910;DHT22;4490;49.072;8.804;2023-05-29T00:14:48;15.00;83.30
8910;DHT22;4490;49.072;8.804;2023-05-29T00:17:13;15.10;83.10
8910;DHT22;4490;49.072;8.804;2023-05-29T00:19:43;15.10;82.90
8910;DHT22;4490;49.072;8.804;2023-05-29T00:22:09;15.10;82.90
8910;DHT22;4490;49.072;8.804;2023-05-29T00:24:35;15.10;83.00
8910;DHT22;4490;49.072;8.804;2023-05-29T00:27:01;15.00;83.00
8910;DHT22;4490;49.072;8.804;2023-05-29T00:29:27;15.00;83.00
8910;DHT22;4490;49.072;8.804;2023-05-29T00:31:53;15.00;83.10
8910;DHT22;4490;49.072;8.804;2023-05-29T00:34:19;15.00;83.40
8910;DHT22;4490;49.072;8.804;2023-05-29T00:36:45;15.00;83.50
8910;DHT22;4490;49.072;8.804;2023-05-29T00:39:11;15.00;83.70
8910;DHT22;4490;49.072;8.804;2023-05-29T00:41:37;14.90;83.60
8910;DHT22;4490;49.072;8.804;2023-05-29T00:44:03;14.90;83.70
8910;DHT22;4490;49.072;8.804;2023-05-29T00:46:30;14.80;83.80
8910;DHT22;4490;49.072;8.804;2023-05-29T00:48:58;14.80;84.00
8910;DHT22;4490;49.072;8.804;2023-05-29T00:51:24;14.80;84.00
8910;DHT22;4490;49.072;8.804;2023-05-29T00:53:51;14.70;84.00
8910;DHT22;4490;49.072;8.804;2023-05-29T00:56:19;14.70;84.20
8910;DHT22;4490;49.072;8.804;2023-05-29T00:58:48;14.60;84.30
8910;DHT22;4490;49.072;8.804;2023-05-29T01:01:15;14.60;84.40
8910;DHT22;4490;49.072;8.804;2023-05-29T01:03:41;14.60;84.40
8910;DHT22;4490;49.072;8.804;2023-05-29T01:06:07;14.50;84.50
8910;DHT22;4490;49.072;8.804;2023-05-29T01:08:33;14.50;84.60
8910;DHT22;4490;49.072;8.804;2023-05-29T01:11:13;14.50;84.70
8910;DHT22;4490;49.072;8.804;2023-05-29T01:13:41;14.50;85.10
8910;DHT22;4490;49.072;8.804;2023-05-29T01:16:21;14.50;84.80
8910;DHT22;4490;49.072;8.804;2023-05-29T01:19:05;14.50;84.70
8910;DHT22;4490;49.072;8.804;2023-05-29T01:22:00;14.50;84.70
8910;DHT22;4490;49.072;8.804;2023-05-29T01:24:49;14.50;84.70
8910;DHT22;4490;49.072;8.804;2023-05-29T01:27:18;14.50;84.60
8910;DHT22;4490;49.072;8.804;2023-05-29T01:29:45;14.40;84.40
8910;DHT22;4490;49.072;8.804;2023-05-29T01:32:12;14.40;84.50
8910;DHT22;4490;49.072;8.804;2023-05-29T01:34:38;14.40;84.80
8910;DHT22;4490;49.072;8.804;2023-05-29T01:37:04;14.40;85.00
8910;DHT22;4490;49.072;8.804;2023-05-29T01:39:31;14.30;85.10
8910;DHT22;4490;49.072;8.804;2023-05-29T01:41:57;14.30;85.20
8910;DHT22;4490;49.072;8.804;2023-05-29T01:44:24;14.30;85.30
8910;DHT22;4490;49.072;8.804;2023-05-29T01:46:51;14.20;85.30
8910;DHT22;4490;49.072;8.804;2023-05-29T01:49:20;14.20;85.30
8910;DHT22;4490;49.072;8.804;2023-05-29T01:51:48;14.20;85.50
8910;DHT22;4490;49.072;8.804;2023-05-29T01:54:15;14.10;85.60
8910;DHT22;4490;49.072;8.804;2023-05-29T01:56:41;14.10;85.80
8910;DHT22;4490;49.072;8.804;2023-05-29T01:59:07;14.00;86.10
8910;DHT22;4490;49.072;8.804;2023-05-29T02:01:33;13.90;86.40
8910;DHT22;4490;49.072;8.804;2023-05-29T02:03:58;13.90;86.80
8910;DHT22;4490;49.072;8.804;2023-05-29T02:06:24;13.80;87.50
8910;DHT22;4490;49.072;8.804;2023-05-29T02:08:50;13.80;87.50
8910;DHT22;4490;49.072;8.804;2023-05-29T02:11:16;13.70;87.80
8910;DHT22;4490;49.072;8.804;2023-05-29T02:13:42;13.60;88.10
8910;DHT22;4490;49.072;8.804;2023-05-29T02:16:07;13.50;88.50
8910;DHT22;4490;49.072;8.804;2023-05-29T02:18:33;13.50;89.00
8910;DHT22;4490;49.072;8.804;2023-05-29T02:21:00;13.40;89.50
8910;DHT22;4490;49.072;8.804;2023-05-29T02:23:26;13.40;89.90
8910;DHT22;4490;49.072;8.804;2023-05-29T02:25:51;13.40;90.10
8910;DHT22;4490;49.072;8.804;2023-05-29T02:28:17;13.30;90.20
8910;DHT22;4490;49.072;8.804;2023-05-29T02:30:42;13.30;90.40
8910;DHT22;4490;49.072;8.804;2023-05-29T02:33:08;13.30;90.60
8910;DHT22;4490;49.072;8.804;2023-05-29T02:35:34;13.20;90.70
8910;DHT22;4490;49.072;8.804;2023-05-29T02:38:00;13.20;90.90
8910;DHT22;4490;49.072;8.804;2023-05-29T02:40:25;13.20;91.20
8910;DHT22;4490;49.072;8.804;2023-05-29T02:42:51;13.10;91.40
8910;DHT22;4490;49.072;8.804;2023-05-29T02:45:17;13.10;91.50
8910;DHT22;4490;49.072;8.804;2023-05-29T02:47:43;13.10;91.80
8910;DHT22;4490;49.072;8.804;2023-05-29T02:50:09;13.00;92.40
8910;DHT22;4490;49.072;8.804;2023-05-29T02:52:35;13.00;92.70
8910;DHT22;4490;49.072;8.804;2023-05-29T02:55:02;13.00;93.20
8910;DHT22;4490;49.072;8.804;2023-05-29T02:57:29;13.00;93.80
8910;DHT22;4490;49.072;8.804;2023-05-29T02:59:54;12.90;93.60
8910;DHT22;4490;49.072;8.804;2023-05-29T03:02:20;12.90;93.80
8910;DHT22;4490;49.072;8.804;2023-05-29T03:04:46;12.90;94.20
8910;DHT22;4490;49.072;8.804;2023-05-29T03:07:12;12.80;94.40
8910;DHT22;4490;49.072;8.804;2023-05-29T03:09:38;12.80;94.80
8910;DHT22;4490;49.072;8.804;2023-05-29T03:12:04;12.80;95.10
8910;DHT22;4490;49.072;8.804;2023-05-29T03:14:29;12.80;95.40
8910;DHT22;4490;49.072;8.804;2023-05-29T03:16:56;12.80;95.30
8910;DHT22;4490;49.072;8.804;2023-05-29T03:19:21;12.80;95.10
8910;DHT22;4490;49.072;8.804;2023-05-29T03:21:47;12.80;94.60
8910;DHT22;4490;49.072;8.804;2023-05-29T03:24:13;12.70;94.10
8910;DHT22;4490;49.072;8.804;2023-05-29T03:26:41;12.70;94.30
8910;DHT22;4490;49.072;8.804;2023-05-29T03:29:07;12.70;94.50
8910;DHT22;4490;49.072;8.804;2023-05-29T03:31:33;12.70;94.80
8910;DHT22;4490;49.072;8.804;2023-05-29T03:33:59;12.60;95.00
8910;DHT22;4490;49.072;8.804;2023-05-29T03:36:25;12.60;95.30
8910;DHT22;4490;49.072;8.804;2023-05-29T03:38:51;12.60;95.60
8910;DHT22;4490;49.072;8.804;2023-05-29T03:41:16;12.60;95.90
8910;DHT22;4490;49.072;8.804;2023-05-29T03:43:42;12.60;95.90
8910;DHT22;4490;49.072;8.804;2023-05-29T03:46:07;12.50;96.40
8910;DHT22;4490;49.072;8.804;2023-05-29T03:48:33;12.50;96.50
8910;DHT22;4490;49.072;8.804;2023-05-29T03:50:59;12.50;96.60
8910;DHT22;4490;49.072;8.804;2023-05-29T03:53:24;12.40;96.70
8910;DHT22;4490;49.072;8.804;2023-05-29T03:55:50;12.40;97.10
8910;DHT22;4490;49.072;8.804;2023-05-29T03:58:16;12.40;97.30
8910;DHT22;4490;49.072;8.804;2023-05-29T04:00:41;12.30;97.80
8910;DHT22;4490;49.072;8.804;2023-05-29T04:03:08;12.30;98.20
8910;DHT22;4490;49.072;8.804;2023-05-29T04:05:33;12.30;98.80
8910;DHT22;4490;49.072;8.804;2023-05-29T04:08:00;12.20;99.30
8910;DHT22;4490;49.072;8.804;2023-05-29T04:10:26;12.20;99.80
8910;DHT22;4490;49.072;8.804;2023-05-29T04:12:52;12.20;99.90
8910;DHT22;4490;49.072;8.804;2023-05-29T04:15:17;12.20;99.90
8910;DHT22;4490;49.072;8.804;2023-05-29T04:17:43;12.20;99.90
8910;DHT22;4490;49.072;8.804;2023-05-29T04:20:09;12.20;99.90
8910;DHT22;4490;49.072;8.804;2023-05-29T04:22:38;12.20;99.90
8910;DHT22;4490;49.072;8.804;2023-05-29T04:25:04;12.30;99.90
8910;DHT22;4490;49.072;8.804;2023-05-29T04:27:31;12.30;99.90
8910;DHT22;4490;49.072;8.804;2023-05-29T04:30:06;12.30;99.90
8910;DHT22;4490;49.072;8.804;2023-05-29T04:32:32;12.20;99.90
8910;DHT22;4490;49.072;8.804;2023-05-29T04:34:58;12.20;99.90
8910;DHT22;4490;49.072;8.804;2023-05-29T04:37:30;12.20;99.90
8910;DHT22;4490;49.072;8.804;2023-05-29T04:39:56;12.20;99.90
8910;DHT22;4490;49.072;8.804;2023-05-29T04:42:23;12.20;99.90
8910;DHT22;4490;49.072;8.804;2023-05-29T04:44:53;12.20;99.90
8910;DHT22;4490;49.072;8.804;2023-05-29T04:47:19;12.20;99.90
8910;DHT22;4490;49.072;8.804;2023-05-29T04:49:45;12.20;99.90
8910;DHT22;4490;49.072;8.804;2023-05-29T04:52:16;12.30;99.90
8910;DHT22;4490;49.072;8.804;2023-05-29T04:54:41;12.30;99.90
8910;DHT22;4490;49.072;8.804;2023-05-29T04:57:07;12.30;99.90
8910;DHT22;4490;49.072;8.804;2023-05-29T04:59:34;12.40;99.90
8910;DHT22;4490;49.072;8.804;2023-05-29T05:02:00;12.40;99.90
8910;DHT22;4490;49.072;8.804;2023-05-29T05:04:26;12.50;99.90
8910;DHT22;4490;49.072;8.804;2023-05-29T05:06:51;12.50;99.90
8910;DHT22;4490;49.072;8.804;2023-05-29T05:09:17;12.60;99.90
8910;DHT22;4490;49.072;8.804;2023-05-29T05:11:43;12.60;99.90
8910;DHT22;4490;49.072;8.804;2023-05-29T05:14:08;12.70;99.90
8910;DHT22;4490;49.072;8.804;2023-05-29T05:16:34;12.70;99.90
8910;DHT22;4490;49.072;8.804;2023-05-29T05:19:00;12.80;99.90
8910;DHT22;4490;49.072;8.804;2023-05-29T05:21:25;12.80;99.90
8910;DHT22;4490;49.072;8.804;2023-05-29T05:23:51;12.80;99.90
8910;DHT22;4490;49.072;8.804;2023-05-29T05:26:17;12.90;99.90
8910;DHT22;4490;49.072;8.804;2023-05-29T05:28:42;12.90;99.90
8910;DHT22;4490;49.072;8.804;2023-05-29T05:31:08;13.00;99.90
8910;DHT22;4490;49.072;8.804;2023-05-29T05:33:34;13.10;99.90
8910;DHT22;4490;49.072;8.804;2023-05-29T05:35:59;13.10;99.90
8910;DHT22;4490;49.072;8.804;2023-05-29T05:38:26;13.20;99.90
8910;DHT22;4490;49.072;8.804;2023-05-29T05:40:51;13.30;99.90
8910;DHT22;4490;49.072;8.804;2023-05-29T05:43:17;13.40;99.90
8910;DHT22;4490;49.072;8.804;2023-05-29T05:45:42;13.40;99.90
8910;DHT22;4490;49.072;8.804;2023-05-29T05:48:08;13.50;99.90
8910;DHT22;4490;49.072;8.804;2023-05-29T05:50:35;13.70;99.90
8910;DHT22;4490;49.072;8.804;2023-05-29T05:53:00;13.80;99.90
8910;DHT22;4490;49.072;8.804;2023-05-29T05:55:26;13.80;99.90
8910;DHT22;4490;49.072;8.804;2023-05-29T05:57:53;14.00;99.90
8910;DHT22;4490;49.072;8.804;2023-05-29T06:00:19;14.10;99.90
8910;DHT22;4490;49.072;8.804;2023-05-29T06:02:45;14.20;99.90
8910;DHT22;4490;49.072;8.804;2023-05-29T06:05:11;14.30;99.90
8910;DHT22;4490;49.072;8.804;2023-05-29T06:07:37;14.40;99.90
8910;DHT22;4490;49.072;8.804;2023-05-29T06:10:04;14.50;99.90
8910;DHT22;4490;49.072;8.804;2023-05-29T06:12:30;14.70;99.90
8910;DHT22;4490;49.072;8.804;2023-05-29T06:14:55;14.80;99.00
8910;DHT22;4490;49.072;8.804;2023-05-29T06:17:22;15.00;96.80
8910;DHT22;4490;49.072;8.804;2023-05-29T06:19:48;15.10;96.50
8910;DHT22;4490;49.072;8.804;2023-05-29T06:22:17;15.20;95.70
8910;DHT22;4490;49.072;8.804;2023-05-29T06:24:42;15.30;95.20
8910;DHT22;4490;49.072;8.804;2023-05-29T06:27:08;15.50;94.80
8910;DHT22;4490;49.072;8.804;2023-05-29T06:29:34;15.60;94.40
8910;DHT22;4490;49.072;8.804;2023-05-29T06:31:59;15.70;94.10
8910;DHT22;4490;49.072;8.804;2023-05-29T06:34:26;15.80;93.90
8910;DHT22;4490;49.072;8.804;2023-05-29T06:36:52;15.90;93.00
8910;DHT22;4490;49.072;8.804;2023-05-29T06:39:18;16.00;92.70
8910;DHT22;4490;49.072;8.804;2023-05-29T06:41:45;16.10;92.30
8910;DHT22;4490;49.072;8.804;2023-05-29T06:44:11;16.30;92.10
8910;DHT22;4490;49.072;8.804;2023-05-29T06:46:37;16.30;91.70
8910;DHT22;4490;49.072;8.804;2023-05-29T06:49:03;16.50;91.70
8910;DHT22;4490;49.072;8.804;2023-05-29T06:51:28;16.60;91.10
8910;DHT22;4490;49.072;8.804;2023-05-29T06:53:54;16.70;90.80
8910;DHT22;4490;49.072;8.804;2023-05-29T06:56:20;16.80;90.30
8910;DHT22;4490;49.072;8.804;2023-05-29T06:58:47;16.90;89.90
8910;DHT22;4490;49.072;8.804;2023-05-29T07:01:13;17.10;89.60
8910;DHT22;4490;49.072;8.804;2023-05-29T07:03:38;17.20;88.80
8910;DHT22;4490;49.072;8.804;2023-05-29T07:06:04;17.30;88.40
8910;DHT22;4490;49.072;8.804;2023-05-29T07:08:30;17.40;88.40
8910;DHT22;4490;49.072;8.804;2023-05-29T07:10:56;17.60;87.70
8910;DHT22;4490;49.072;8.804;2023-05-29T07:13:21;17.70;87.00
8910;DHT22;4490;49.072;8.804;2023-05-29T07:15:50;17.80;86.30
8910;DHT22;4490;49.072;8.804;2023-05-29T07:18:16;18.00;86.10
8910;DHT22;4490;49.072;8.804;2023-05-29T07:20:42;18.10;84.20
8910;DHT22;4490;49.072;8.804;2023-05-29T07:23:07;18.20;84.70
8910;DHT22;4490;49.072;8.804;2023-05-29T07:25:33;18.30;83.90
8910;DHT22;4490;49.072;8.804;2023-05-29T07:27:59;18.50;83.60
8910;DHT22;4490;49.072;8.804;2023-05-29T07:30:24;18.60;83.00
8910;DHT22;4490;49.072;8.804;2023-05-29T07:32:50;18.70;81.90
8910;DHT22;4490;49.072;8.804;2023-05-29T07:35:16;18.80;81.50
8910;DHT22;4490;49.072;8.804;2023-05-29T07:37:41;18.90;81.70
8910;DHT22;4490;49.072;8.804;2023-05-29T07:40:07;19.00;81.90
8910;DHT22;4490;49.072;8.804;2023-05-29T07:42:33;19.20;82.30
8910;DHT22;4490;49.072;8.804;2023-05-29T07:44:59;19.30;81.40
8910;DHT22;4490;49.072;8.804;2023-05-29T07:47:25;19.50;80.80
8910;DHT22;4490;49.072;8.804;2023-05-29T07:49:50;19.60;79.50
8910;DHT22;4490;49.072;8.804;2023-05-29T07:52:17;19.70;78.90
8910;DHT22;4490;49.072;8.804;2023-05-29T07:54:43;19.80;78.50
8910;DHT22;4490;49.072;8.804;2023-05-29T07:57:08;19.90;79.50
8910;DHT22;4490;49.072;8.804;2023-05-29T07:59:40;20.00;78.80
8910;DHT22;4490;49.072;8.804;2023-05-29T08:02:07;20.10;78.30
8910;DHT22;4490;49.072;8.804;2023-05-29T08:04:32;20.20;76.60
8910;DHT22;4490;49.072;8.804;2023-05-29T08:07:01;20.40;77.40
8910;DHT22;4490;49.072;8.804;2023-05-29T08:09:29;20.50;76.80
8910;DHT22;4490;49.072;8.804;2023-05-29T08:11:54;20.60;77.00
8910;DHT22;4490;49.072;8.804;2023-05-29T08:14:20;20.70;76.60
8910;DHT22;4490;49.072;8.804;2023-05-29T08:16:46;20.90;76.10
8910;DHT22;4490;49.072;8.804;2023-05-29T08:19:11;21.00;75.80
8910;DHT22;4490;49.072;8.804;2023-05-29T08:21:37;21.10;76.10
8910;DHT22;4490;49.072;8.804;2023-05-29T08:24:03;21.30;76.00
8910;DHT22;4490;49.072;8.804;2023-05-29T08:26:32;21.40;75.20
8910;DHT22;4490;49.072;8.804;2023-05-29T08:28:58;21.50;74.70
8910;DHT22;4490;49.072;8.804;2023-05-29T08:31:24;21.70;74.40
8910;DHT22;4490;49.072;8.804;2023-05-29T08:33:53;21.80;73.90
8910;DHT22;4490;49.072;8.804;2023-05-29T08:36:18;21.90;72.90
8910;DHT22;4490;49.072;8.804;2023-05-29T08:38:51;22.10;72.70
8910;DHT22;4490;49.072;8.804;2023-05-29T08:41:24;22.20;72.50
8910;DHT22;4490;49.072;8.804;2023-05-29T08:43:52;22.30;72.70
8910;DHT22;4490;49.072;8.804;2023-05-29T08:46:18;22.30;72.50
8910;DHT22;4490;49.072;8.804;2023-05-29T08:48:48;22.40;72.60
8910;DHT22;4490;49.072;8.804;2023-05-29T08:51:19;22.60;72.50
8910;DHT22;4490;49.072;8.804;2023-05-29T08:53:46;22.70;72.10
8910;DHT22;4490;49.072;8.804;2023-05-29T08:56:12;22.80;72.50
8910;DHT22;4490;49.072;8.804;2023-05-29T08:58:38;22.90;71.50
8910;DHT22;4490;49.072;8.804;2023-05-29T09:01:04;23.00;70.90
8910;DHT22;4490;49.072;8.804;2023-05-29T09:03:30;23.10;71.80
8910;DHT22;4490;49.072;8.804;2023-05-29T09:05:59;23.30;71.90
8910;DHT22;4490;49.072;8.804;2023-05-29T09:08:25;23.40;71.30
8910;DHT22;4490;49.072;8.804;2023-05-29T09:10:52;23.40;70.90
8910;DHT22;4490;49.072;8.804;2023-05-29T09:13:18;23.60;70.70
8910;DHT22;4490;49.072;8.804;2023-05-29T09:15:43;23.70;70.40
8910;DHT22;4490;49.072;8.804;2023-05-29T09:18:10;23.80;70.60
8910;DHT22;4490;49.072;8.804;2023-05-29T09:20:35;23.90;70.00
8910;DHT22;4490;49.072;8.804;2023-05-29T09:23:04;24.00;69.20
8910;DHT22;4490;49.072;8.804;2023-05-29T09:25:31;24.20;68.60
8910;DHT22;4490;49.072;8.804;2023-05-29T09:28:03;24.20;69.10
8910;DHT22;4490;49.072;8.804;2023-05-29T09:33:03;24.60;68.60
8910;DHT22;4490;49.072;8.804;2023-05-29T09:35:39;24.80;67.30
8910;DHT22;4490;49.072;8.804;2023-05-29T09:38:06;24.90;66.60
8910;DHT22;4490;49.072;8.804;2023-05-29T09:40:36;24.90;66.90
8910;DHT22;4490;49.072;8.804;2023-05-29T09:43:09;25.10;66.80
8910;DHT22;4490;49.072;8.804;2023-05-29T09:45:40;25.20;66.20
8910;DHT22;4490;49.072;8.804;2023-05-29T09:48:07;25.30;65.30
8910;DHT22;4490;49.072;8.804;2023-05-29T09:50:34;25.40;63.20
8910;DHT22;4490;49.072;8.804;2023-05-29T09:53:00;25.50;64.20
8910;DHT22;4490;49.072;8.804;2023-05-29T09:55:27;25.50;64.30
8910;DHT22;4490;49.072;8.804;2023-05-29T09:57:54;25.70;64.20
8910;DHT22;4490;49.072;8.804;2023-05-29T10:00:22;25.80;63.10
8910;DHT22;4490;49.072;8.804;2023-05-29T10:02:48;25.80;61.90
8910;DHT22;4490;49.072;8.804;2023-05-29T10:05:14;25.90;62.10
8910;DHT22;4490;49.072;8.804;2023-05-29T10:07:45;26.10;62.00
8910;DHT22;4490;49.072;8.804;2023-05-29T10:10:15;26.30;63.00
8910;DHT22;4490;49.072;8.804;2023-05-29T10:12:45;26.50;62.10
8910;DHT22;4490;49.072;8.804;2023-05-29T10:15:14;26.60;61.00
8910;DHT22;4490;49.072;8.804;2023-05-29T10:17:51;26.70;59.70
8910;DHT22;4490;49.072;8.804;2023-05-29T10:20:20;26.80;58.40
8910;DHT22;4490;49.072;8.804;2023-05-29T10:22:47;26.90;59.00
8910;DHT22;4490;49.072;8.804;2023-05-29T10:25:14;26.90;58.90
8910;DHT22;4490;49.072;8.804;2023-05-29T10:27:41;27.00;58.90
8910;DHT22;4490;49.072;8.804;2023-05-29T10:30:20;27.00;58.50
8910;DHT22;4490;49.072;8.804;2023-05-29T10:35:36;27.20;58.70
8910;DHT22;4490;49.072;8.804;2023-05-29T10:38:12;27.20;58.50
8910;DHT22;4490;49.072;8.804;2023-05-29T10:40:47;27.30;59.10
8910;DHT22;4490;49.072;8.804;2023-05-29T10:43:34;27.50;58.70
8910;DHT22;4490;49.072;8.804;2023-05-29T10:46:02;27.60;57.60
8910;DHT22;4490;49.072;8.804;2023-05-29T10:48:37;27.70;57.70
8910;DHT22;4490;49.072;8.804;2023-05-29T10:51:05;27.70;57.10
8910;DHT22;4490;49.072;8.804;2023-05-29T10:53:33;27.70;56.80
8910;DHT22;4490;49.072;8.804;2023-05-29T10:56:00;27.80;57.20
8910;DHT22;4490;49.072;8.804;2023-05-29T10:58:30;27.90;56.20
8910;DHT22;4490;49.072;8.804;2023-05-29T11:00:55;27.90;56.40
8910;DHT22;4490;49.072;8.804;2023-05-29T11:03:25;28.00;56.70
8910;DHT22;4490;49.072;8.804;2023-05-29T11:06:04;28.20;56.50
8910;DHT22;4490;49.072;8.804;2023-05-29T11:08:43;28.30;55.30
8910;DHT22;4490;49.072;8.804;2023-05-29T11:11:13;28.40;54.80
8910;DHT22;4490;49.072;8.804;2023-05-29T11:13:39;28.40;54.10
8910;DHT22;4490;49.072;8.804;2023-05-29T11:19:03;28.50;53.90
8910;DHT22;4490;49.072;8.804;2023-05-29T11:24:23;28.70;52.00
8910;DHT22;4490;49.072;8.804;2023-05-29T11:26:51;28.70;52.00
8910;DHT22;4490;49.072;8.804;2023-05-29T11:29:24;28.70;51.90
8910;DHT22;4490;49.072;8.804;2023-05-29T11:32:12;28.70;52.80
8910;DHT22;4490;49.072;8.804;2023-05-29T11:34:41;28.90;51.30
8910;DHT22;4490;49.072;8.804;2023-05-29T11:37:07;28.90;52.40
8910;DHT22;4490;49.072;8.804;2023-05-29T11:39:38;29.00;51.70
8910;DHT22;4490;49.072;8.804;2023-05-29T11:42:07;29.10;51.10
8910;DHT22;4490;49.072;8.804;2023-05-29T11:44:33;29.20;51.60
8910;DHT22;4490;49.072;8.804;2023-05-29T11:47:03;29.30;50.80
8910;DHT22;4490;49.072;8.804;2023-05-29T11:49:31;29.40;50.10
8910;DHT22;4490;49.072;8.804;2023-05-29T11:52:12;29.40;49.30
8910;DHT22;4490;49.072;8.804;2023-05-29T11:54:39;29.40;48.90
8910;DHT22;4490;49.072;8.804;2023-05-29T11:57:19;29.40;49.60
8910;DHT22;4490;49.072;8.804;2023-05-29T11:59:46;29.50;49.40
8910;DHT22;4490;49.072;8.804;2023-05-29T12:02:12;29.60;49.30
8910;DHT22;4490;49.072;8.804;2023-05-29T12:04:37;29.80;49.40
8910;DHT22;4490;49.072;8.804;2023-05-29T12:07:17;29.90;48.60
8910;DHT22;4490;49.072;8.804;2023-05-29T12:09:43;30.00;48.30
8910;DHT22;4490;49.072;8.804;2023-05-29T12:12:08;30.00;48.50
8910;DHT22;4490;49.072;8.804;2023-05-29T12:14:34;30.00;48.40
8910;DHT22;4490;49.072;8.804;2023-05-29T12:17:00;30.10;48.50
8910;DHT22;4490;49.072;8.804;2023-05-29T12:19:26;30.20;48.10
8910;DHT22;4490;49.072;8.804;2023-05-29T12:21:51;30.20;48.30
8910;DHT22;4490;49.072;8.804;2023-05-29T12:24:20;30.30;48.20
8910;DHT22;4490;49.072;8.804;2023-05-29T12:26:46;30.30;47.70
8910;DHT22;4490;49.072;8.804;2023-05-29T12:29:15;30.30;47.20
8910;DHT22;4490;49.072;8.804;2023-05-29T12:31:40;30.30;46.60
8910;DHT22;4490;49.072;8.804;2023-05-29T12:34:11;30.30;47.10
8910;DHT22;4490;49.072;8.804;2023-05-29T12:36:43;30.30;48.40
8910;DHT22;4490;49.072;8.804;2023-05-29T12:39:09;30.40;47.80
8910;DHT22;4490;49.072;8.804;2023-05-29T12:41:36;30.40;47.60
8910;DHT22;4490;49.072;8.804;2023-05-29T12:44:03;30.40;47.20
8910;DHT22;4490;49.072;8.804;2023-05-29T12:46:37;30.40;47.00
8910;DHT22;4490;49.072;8.804;2023-05-29T12:49:16;30.50;47.60
8910;DHT22;4490;49.072;8.804;2023-05-29T12:51:45;30.50;47.00
8910;DHT22;4490;49.072;8.804;2023-05-29T12:54:12;30.50;47.00
8910;DHT22;4490;49.072;8.804;2023-05-29T12:56:38;30.60;46.60
8910;DHT22;4490;49.072;8.804;2023-05-29T12:59:06;30.50;46.40
8910;DHT22;4490;49.072;8.804;2023-05-29T13:01:32;30.50;46.90
8910;DHT22;4490;49.072;8.804;2023-05-29T13:03:58;30.50;46.90
8910;DHT22;4490;49.072;8.804;2023-05-29T13:06:23;30.50;47.20
8910;DHT22;4490;49.072;8.804;2023-05-29T13:08:50;30.50;47.80
8910;DHT22;4490;49.072;8.804;2023-05-29T13:11:15;30.50;47.20
8910;DHT22;4490;49.072;8.804;2023-05-29T13:13:41;30.50;47.60
8910;DHT22;4490;49.072;8.804;2023-05-29T13:16:07;30.50;47.10
8910;DHT22;4490;49.072;8.804;2023-05-29T13:18:33;30.40;46.30
8910;DHT22;4490;49.072;8.804;2023-05-29T13:20:59;30.30;46.40
8910;DHT22;4490;49.072;8.804;2023-05-29T13:23:25;30.30;46.80
8910;DHT22;4490;49.072;8.804;2023-05-29T13:25:51;30.20;46.70
8910;DHT22;4490;49.072;8.804;2023-05-29T13:28:16;30.10;47.00
8910;DHT22;4490;49.072;8.804;2023-05-29T13:30:42;30.00;47.30
8910;DHT22;4490;49.072;8.804;2023-05-29T13:33:08;30.00;47.00
8910;DHT22;4490;49.072;8.804;2023-05-29T13:35:33;30.00;47.40
8910;DHT22;4490;49.072;8.804;2023-05-29T13:37:59;29.90;47.40
8910;DHT22;4490;49.072;8.804;2023-05-29T13:40:24;29.90;47.40
8910;DHT22;4490;49.072;8.804;2023-05-29T13:42:51;29.90;47.20
8910;DHT22;4490;49.072;8.804;2023-05-29T13:45:16;29.90;47.40
8910;DHT22;4490;49.072;8.804;2023-05-29T13:47:42;29.80;47.20
8910;DHT22;4490;49.072;8.804;2023-05-29T13:50:08;29.80;47.50
8910;DHT22;4490;49.072;8.804;2023-05-29T13:52:34;29.80;47.80
8910;DHT22;4490;49.072;8.804;2023-05-29T13:54:59;29.80;47.90
8910;DHT22;4490;49.072;8.804;2023-05-29T13:57:30;29.80;47.60
8910;DHT22;4490;49.072;8.804;2023-05-29T13:59:56;29.70;47.60
8910;DHT22;4490;49.072;8.804;2023-05-29T14:02:22;29.60;47.20
8910;DHT22;4490;49.072;8.804;2023-05-29T14:04:48;29.60;47.50
8910;DHT22;4490;49.072;8.804;2023-05-29T14:07:13;29.40;47.30
8910;DHT22;4490;49.072;8.804;2023-05-29T14:09:39;29.40;47.20
8910;DHT22;4490;49.072;8.804;2023-05-29T14:12:05;29.40;47.20
8910;DHT22;4490;49.072;8.804;2023-05-29T14:14:32;29.30;47.20
8910;DHT22;4490;49.072;8.804;2023-05-29T14:16:58;29.30;47.70
8910;DHT22;4490;49.072;8.804;2023-05-29T14:19:24;29.20;47.70
8910;DHT22;4490;49.072;8.804;2023-05-29T14:21:50;29.20;48.20
8910;DHT22;4490;49.072;8.804;2023-05-29T14:24:16;29.10;48.50
8910;DHT22;4490;49.072;8.804;2023-05-29T14:26:43;29.10;48.60
8910;DHT22;4490;49.072;8.804;2023-05-29T14:29:11;29.00;47.40
8910;DHT22;4490;49.072;8.804;2023-05-29T14:31:37;29.00;47.50
8910;DHT22;4490;49.072;8.804;2023-05-29T14:34:02;28.90;46.90
8910;DHT22;4490;49.072;8.804;2023-05-29T14:36:28;28.80;46.90
8910;DHT22;4490;49.072;8.804;2023-05-29T14:38:54;28.70;46.90
8910;DHT22;4490;49.072;8.804;2023-05-29T14:41:19;28.70;47.50
8910;DHT22;4490;49.072;8.804;2023-05-29T14:43:45;28.70;47.10
8910;DHT22;4490;49.072;8.804;2023-05-29T14:46:10;28.70;47.30
8910;DHT22;4490;49.072;8.804;2023-05-29T14:48:38;28.60;46.80
8910;DHT22;4490;49.072;8.804;2023-05-29T14:51:07;28.60;47.30
8910;DHT22;4490;49.072;8.804;2023-05-29T14:53:33;28.60;47.40
8910;DHT22;4490;49.072;8.804;2023-05-29T14:55:58;28.50;47.30
8910;DHT22;4490;49.072;8.804;2023-05-29T14:58:24;28.50;47.30
8910;DHT22;4490;49.072;8.804;2023-05-29T15:00:50;28.50;47.50
8910;DHT22;4490;49.072;8.804;2023-05-29T15:03:15;28.40;47.70
8910;DHT22;4490;49.072;8.804;2023-05-29T15:05:41;28.40;47.40
8910;DHT22;4490;49.072;8.804;2023-05-29T15:08:06;28.30;47.70
8910;DHT22;4490;49.072;8.804;2023-05-29T15:10:32;28.20;47.40
8910;DHT22;4490;49.072;8.804;2023-05-29T15:12:58;28.10;47.20
8910;DHT22;4490;49.072;8.804;2023-05-29T15:15:25;28.00;47.30
8910;DHT22;4490;49.072;8.804;2023-05-29T15:17:52;27.90;47.70
8910;DHT22;4490;49.072;8.804;2023-05-29T15:20:24;27.80;48.30
8910;DHT22;4490;49.072;8.804;2023-05-29T15:22:50;27.80;48.40
8910;DHT22;4490;49.072;8.804;2023-05-29T15:25:21;27.70;48.50
8910;DHT22;4490;49.072;8.804;2023-05-29T15:27:47;27.70;48.80
8910;DHT22;4490;49.072;8.804;2023-05-29T15:30:15;27.60;49.20
8910;DHT22;4490;49.072;8.804;2023-05-29T15:32:42;27.50;49.30
8910;DHT22;4490;49.072;8.804;2023-05-29T15:35:12;27.50;48.80
8910;DHT22;4490;49.072;8.804;2023-05-29T15:37:39;27.40;48.80
8910;DHT22;4490;49.072;8.804;2023-05-29T15:40:07;27.30;48.10
8910;DHT22;4490;49.072;8.804;2023-05-29T15:42:33;27.30;48.30
8910;DHT22;4490;49.072;8.804;2023-05-29T15:44:58;27.20;48.30
8910;DHT22;4490;49.072;8.804;2023-05-29T15:47:24;27.20;48.20
8910;DHT22;4490;49.072;8.804;2023-05-29T15:49:50;27.10;48.50
8910;DHT22;4490;49.072;8.804;2023-05-29T15:52:16;27.00;48.30
8910;DHT22;4490;49.072;8.804;2023-05-29T15:54:42;27.00;48.60
8910;DHT22;4490;49.072;8.804;2023-05-29T15:57:07;26.90;48.90
8910;DHT22;4490;49.072;8.804;2023-05-29T15:59:34;26.90;49.40
8910;DHT22;4490;49.072;8.804;2023-05-29T16:02:00;26.90;49.20
8910;DHT22;4490;49.072;8.804;2023-05-29T16:04:26;26.90;48.90
8910;DHT22;4490;49.072;8.804;2023-05-29T16:06:52;26.80;48.90
8910;DHT22;4490;49.072;8.804;2023-05-29T16:09:17;26.80;49.00
8910;DHT22;4490;49.072;8.804;2023-05-29T16:11:43;26.70;49.10